Cape Hatteras Natl Seashore, North Carolina
Current Conditions -  °F | °C
As of 7:51 PM on Saturday 20 Dec 2014 (Local Time) from KHSE Reporting Station
Overcast Overcast  
Wind Chill: 38°   Ceiling: 6000
Heat Index: 43°   Visibility: 10mi
Dew Point: 37°   Wind: 8mph
Humidity: 80%   Direction: 30°NNE
Pressure: 30.28"   Gusts: NA
Location:  35.22°N, 75.68°W
Report Text: KHSE 210051Z AUTO 03007KT 10SM OVC060 06/03 A3028 RMK AO2 SLP252 T00610028 TSNO
Loading
Personal Weather Stations






























Interactive Weather Map New forecast layout! Learn more

10-Day Weather Forecast

Advertisements
Track Severe Weather on mobile